<?xml version="1.0" encoding="utf-8"?>
<gpx xmlns:xsi="http://www.w3.org/2001/XMLSchema-instance" xmlns:xsd="http://www.w3.org/2001/XMLSchema" version="1.1" creator="Shapelink.com" xmlns="http://www.topografix.com/GPX/1/1" xmlns:gpxtpx="http://www.garmin.com/xmlschemas/TrackPointExtension/v1">
  <metadata>
    <name>Övrigt 1.26 km, 2020-08-07</name>
    <desc></desc>
    <author><name>Marian Moron</name></author> 
    <time>2020-08-07T20:31:03Z</time>
  </metadata>
  <trk>
    <name>Övrigt 1.26 km, 2020-08-07</name>
    <trkseg>
      <trkpt lat="51.230306323667" lon="4.4590534534">
        <ele>0</ele>
        <time>2020-08-07T20:31:03Z</time>
      </trkpt>
      <trkpt lat="51.230387711916" lon="4.459058817816">
        <ele>6.8</ele>
        <time>2020-08-07T20:31:20Z</time>
      </trkpt>
      <trkpt lat="51.230533473157" lon="4.459734985689">
        <ele>11</ele>
        <time>2020-08-07T20:32:00Z</time>
      </trkpt>
      <trkpt lat="51.230597259416" lon="4.459834227385">
        <ele>11.8</ele>
        <time>2020-08-07T20:32:18Z</time>
      </trkpt>
      <trkpt lat="51.230671187774" lon="4.459974875667">
        <ele>4.8</ele>
        <time>2020-08-07T20:32:28Z</time>
      </trkpt>
      <trkpt lat="51.230654340155" lon="4.460072273345">
        <ele>1.8</ele>
        <time>2020-08-07T20:32:39Z</time>
      </trkpt>
      <trkpt lat="51.230710750342" lon="4.460576863725">
        <ele>0</ele>
        <time>2020-08-07T20:33:09Z</time>
      </trkpt>
      <trkpt lat="51.23055669102" lon="4.460740394594">
        <ele>0</ele>
        <time>2020-08-07T20:33:47Z</time>
      </trkpt>
      <trkpt lat="51.230254523525" lon="4.460751039607">
        <ele>0</ele>
        <time>2020-08-07T20:34:10Z</time>
      </trkpt>
      <trkpt lat="51.22991966662" lon="4.46089160407">
        <ele>0</ele>
        <time>2020-08-07T20:34:33Z</time>
      </trkpt>
      <trkpt lat="51.229645410852" lon="4.461093859317">
        <ele>0</ele>
        <time>2020-08-07T20:34:57Z</time>
      </trkpt>
      <trkpt lat="51.229732498793" lon="4.461374066234">
        <ele>0</ele>
        <time>2020-08-07T20:35:17Z</time>
      </trkpt>
      <trkpt lat="51.229806259513" lon="4.461605825769">
        <ele>0</ele>
        <time>2020-08-07T20:35:33Z</time>
      </trkpt>
      <trkpt lat="51.229869626677" lon="4.461999607431">
        <ele>0</ele>
        <time>2020-08-07T20:36:08Z</time>
      </trkpt>
      <trkpt lat="51.229992756788" lon="4.462569828088">
        <ele>0</ele>
        <time>2020-08-07T20:36:34Z</time>
      </trkpt>
      <trkpt lat="51.230057716513" lon="4.462641660971">
        <ele>0</ele>
        <time>2020-08-07T20:36:41Z</time>
      </trkpt>
      <trkpt lat="51.230170033973" lon="4.462874258696">
        <ele>0</ele>
        <time>2020-08-07T20:37:03Z</time>
      </trkpt>
      <trkpt lat="51.229934083488" lon="4.462263972557">
        <ele>0</ele>
        <time>2020-08-07T20:37:44Z</time>
      </trkpt>
      <trkpt lat="51.229809528454" lon="4.461583027001">
        <ele>0</ele>
        <time>2020-08-07T20:38:30Z</time>
      </trkpt>
      <trkpt lat="51.229791758826" lon="4.461503985684">
        <ele>0</ele>
        <time>2020-08-07T20:38:35Z</time>
      </trkpt>
      <trkpt lat="51.229749094955" lon="4.461312040174">
        <ele>0</ele>
        <time>2020-08-07T20:38:49Z</time>
      </trkpt>
      <trkpt lat="51.229591515235" lon="4.46098296678">
        <ele>7.8</ele>
        <time>2020-08-07T20:39:11Z</time>
      </trkpt>
      <trkpt lat="51.229470229142" lon="4.460889760052">
        <ele>6.8</ele>
        <time>2020-08-07T20:39:27Z</time>
      </trkpt>
      <trkpt lat="51.22945363298" lon="4.460778029325">
        <ele>5.4</ele>
        <time>2020-08-07T20:39:39Z</time>
      </trkpt>
      <trkpt lat="51.229447011279" lon="4.460641571993">
        <ele>3.6</ele>
        <time>2020-08-07T20:39:48Z</time>
      </trkpt>
      <trkpt lat="51.229301752952" lon="4.460610391325">
        <ele>0</ele>
        <time>2020-08-07T20:40:14Z</time>
      </trkpt>
      <trkpt lat="51.229052391427" lon="4.460668394073">
        <ele>0</ele>
        <time>2020-08-07T20:40:39Z</time>
      </trkpt>
      <trkpt lat="51.228729185363" lon="4.46074911177">
        <ele>0</ele>
        <time>2020-08-07T20:41:53Z</time>
      </trkpt>
      <trkpt lat="51.228535228197" lon="4.460259692629">
        <ele>3.4</ele>
        <time>2020-08-07T20:42:51Z</time>
      </trkpt>
      <trkpt lat="51.228296595504" lon="4.460215855292">
        <ele>0</ele>
        <time>2020-08-07T20:43:29Z</time>
      </trkpt>
      <trkpt lat="51.22839835177" lon="4.459526863112">
        <ele>1.2</ele>
        <time>2020-08-07T20:44:11Z</time>
      </trkpt>
      <trkpt lat="51.228530282876" lon="4.458850108506">
        <ele>0</ele>
        <time>2020-08-07T20:44:53Z</time>
      </trkpt>
      <trkpt lat="51.228487702824" lon="4.458719350866">
        <ele>0</ele>
        <time>2020-08-07T20:45:06Z</time>
      </trkpt>
      <trkpt lat="51.228359040659" lon="4.458357336605">
        <ele>1.2</ele>
        <time>2020-08-07T20:45:51Z</time>
      </trkpt>
      <trkpt lat="51.228240017679" lon="4.458435875008">
        <ele>3</ele>
        <time>2020-08-07T20:46:05Z</time>
      </trkpt>
      <trkpt lat="51.22783760266" lon="4.458762266194">
        <ele>6</ele>
        <time>2020-08-07T20:46:47Z</time>
      </trkpt>
      <trkpt lat="51.227770128365" lon="4.458831919783">
        <ele>9</ele>
        <time>2020-08-07T20:46:58Z</time>
      </trkpt>
      <trkpt lat="51.227803153051" lon="4.458691103863">
        <ele>0</ele>
        <time>2020-08-07T20:47:29Z</time>
      </trkpt>
      <trkpt lat="51.227899293444" lon="4.458624886853">
        <ele>0</ele>
        <time>2020-08-07T20:47:40Z</time>
      </trkpt>
      <trkpt lat="51.228320064824" lon="4.458362868659">
        <ele>0</ele>
        <time>2020-08-07T20:48:15Z</time>
      </trkpt>
      <trkpt lat="51.228693310831" lon="4.458140245395">
        <ele>0</ele>
        <time>2020-08-07T20:48:55Z</time>
      </trkpt>
      <trkpt lat="51.229021546035" lon="4.458125493251">
        <ele>5.4</ele>
        <time>2020-08-07T20:49:35Z</time>
      </trkpt>
      <trkpt lat="51.229465870554" lon="4.457964812228">
        <ele>5.4</ele>
        <time>2020-08-07T20:50:20Z</time>
      </trkpt>
      <trkpt lat="51.229619846057" lon="4.457919717606">
        <ele>9</ele>
        <time>2020-08-07T20:50:45Z</time>
      </trkpt>
      <trkpt lat="51.229704000333" lon="4.457905803652">
        <ele>12.8</ele>
        <time>2020-08-07T20:51:05Z</time>
      </trkpt>
    </trkseg>
  </trk>
</gpx>